Time;durP1;ratioP1;P1;durP2;ratioP2;P2;SDS_P1;SDS_P2;PMS_P1;PMS_P2;Temp;Humidity;BMP_temperature;BMP_pressure;BME280_temperature;BME280_humidity;BME280_pressure;Samples;Min_cycle;Max_cycle;Signal;HPM_P1;HPM_P2
2020/12/17 00:01:15;;;;;;;33.33;18.10;;;4.60;99.90;;;;;;4991787;28;20074;-65
2020/12/17 00:03:42;;;;;;;30.50;17.10;;;4.60;99.90;;;;;;4973996;28;20046;-64
2020/12/17 00:06:12;;;;;;;31.10;16.00;;;4.60;99.90;;;;;;4965679;28;20125;-65
2020/12/17 00:08:39;;;;;;;33.40;17.25;;;4.60;99.90;;;;;;4992046;28;20046;-64
2020/12/17 00:11:06;;;;;;;30.77;16.92;;;4.60;99.90;;;;;;4991364;28;20481;-64
2020/12/17 00:13:33;;;;;;;35.38;18.15;;;4.50;99.90;;;;;;4991970;28;20046;-64
2020/12/17 00:15:59;;;;;;;29.95;16.67;;;4.50;99.90;;;;;;4991275;28;20073;-64
2020/12/17 00:18:26;;;;;;;35.15;17.88;;;4.50;99.90;;;;;;4990668;28;20331;-65
2020/12/17 00:20:52;;;;;;;31.02;16.95;;;4.60;99.90;;;;;;4991023;28;20065;-66
2020/12/17 00:23:19;;;;;;;31.70;17.33;;;4.50;99.90;;;;;;4991438;28;20043;-64
2020/12/17 00:25:45;;;;;;;34.03;17.33;;;4.50;99.90;;;;;;4987112;28;20436;-65
2020/12/17 00:28:12;;;;;;;31.98;17.30;;;4.50;99.90;;;;;;4990379;28;20058;-64
2020/12/17 00:30:38;;;;;;;32.15;16.75;;;4.40;99.90;;;;;;4991473;28;20054;-65
2020/12/17 00:33:05;;;;;;;34.92;17.42;;;4.50;99.90;;;;;;4991710;28;20477;-65
2020/12/17 00:35:31;;;;;;;31.80;17.52;;;4.40;99.90;;;;;;4991258;28;20042;-64
2020/12/17 00:37:58;;;;;;;32.25;16.88;;;4.40;99.90;;;;;;4990788;28;20386;-64
2020/12/17 00:40:24;;;;;;;34.95;18.80;;;4.40;99.90;;;;;;4973835;28;20046;-64
2020/12/17 00:42:51;;;;;;;35.35;18.50;;;4.40;99.90;;;;;;4990679;28;20084;-64
2020/12/17 00:45:18;;;;;;;32.58;17.70;;;4.40;99.90;;;;;;4991132;28;20515;-64
2020/12/17 00:47:44;;;;;;;31.48;16.00;;;4.40;99.90;;;;;;4989514;28;20390;-64
2020/12/17 00:50:12;;;;;;;32.30;17.58;;;4.40;99.90;;;;;;4991468;28;20061;-65
2020/12/17 00:52:39;;;;;;;31.27;17.52;;;4.50;99.90;;;;;;4990777;28;20054;-65
2020/12/17 00:55:06;;;;;;;30.77;16.33;;;4.50;99.90;;;;;;4991042;28;20058;-65
2020/12/17 00:57:33;;;;;;;32.38;16.25;;;4.50;99.90;;;;;;4990006;28;20069;-64
2020/12/17 01:00:00;;;;;;;31.90;16.50;;;4.50;99.90;;;;;;4990354;28;20062;-64
2020/12/17 01:02:26;;;;;;;32.53;16.83;;;4.40;99.90;;;;;;4990455;28;20057;-65
2020/12/17 01:04:53;;;;;;;31.17;17.05;;;4.50;99.90;;;;;;4991326;28;20057;-64
2020/12/17 01:07:20;;;;;;;29.00;15.45;;;4.50;99.90;;;;;;4990491;28;20412;-65
2020/12/17 01:09:47;;;;;;;27.65;15.15;;;4.50;99.90;;;;;;4991207;28;20047;-64
2020/12/17 01:12:14;;;;;;;27.75;15.32;;;4.50;99.90;;;;;;4990506;28;20093;-65
2020/12/17 01:14:41;;;;;;;30.25;15.70;;;4.40;99.90;;;;;;4990905;28;20046;-64
2020/12/17 01:17:08;;;;;;;29.90;15.95;;;4.40;99.90;;;;;;4990522;28;20053;-64
2020/12/17 01:19:34;;;;;;;26.25;14.15;;;4.40;99.90;;;;;;4990979;28;20054;-64
2020/12/17 01:22:02;;;;;;;26.48;14.70;;;4.40;99.90;;;;;;4990552;28;20046;-63
2020/12/17 01:24:28;;;;;;;27.67;14.80;;;4.40;99.90;;;;;;4991064;28;20424;-64
2020/12/17 01:26:56;;;;;;;27.15;14.05;;;4.30;99.90;;;;;;4990462;28;20050;-65
2020/12/17 01:29:23;;;;;;;23.52;14.13;;;4.30;99.90;;;;;;4990108;28;20070;-64
2020/12/17 01:31:59;;;;;;;27.73;14.40;;;4.30;99.90;;;;;;4992564;28;20046;-64
2020/12/17 01:34:26;;;;;;;25.10;15.10;;;4.20;99.90;;;;;;4976795;28;20046;-67
2020/12/17 01:36:54;;;;;;;26.67;14.23;;;4.20;99.90;;;;;;4990820;28;20065;-65
2020/12/17 01:39:22;;;;;;;29.08;14.00;;;4.20;99.90;;;;;;4990478;28;20050;-64
2020/12/17 01:41:49;;;;;;;26.92;14.90;;;4.20;99.90;;;;;;4990476;28;20049;-64
2020/12/17 01:44:16;;;;;;;24.38;13.93;;;4.10;99.90;;;;;;4990417;28;20393;-64
2020/12/17 01:46:42;;;;;;;24.08;14.25;;;4.10;99.90;;;;;;4989645;28;20042;-64
2020/12/17 01:49:09;;;;;;;25.85;13.68;;;4.10;99.90;;;;;;4989896;28;20055;-64
2020/12/17 01:51:36;;;;;;;26.20;14.13;;;4.10;99.90;;;;;;4988962;28;20501;-64
2020/12/17 01:54:02;;;;;;;26.27;14.52;;;4.10;99.90;;;;;;4990349;28;20061;-64
2020/12/17 01:56:29;;;;;;;23.70;13.80;;;4.10;99.90;;;;;;4971674;28;20051;-65
2020/12/17 01:59:21;;;;;;;24.08;13.15;;;4.10;99.90;;;;;;4990684;28;20056;-64
2020/12/17 02:01:49;;;;;;;24.90;14.45;;;4.10;99.90;;;;;;4985110;28;20046;-65
2020/12/17 02:04:22;;;;;;;24.65;14.07;;;4.10;99.90;;;;;;4972547;28;20557;-65
2020/12/17 02:06:48;;;;;;;;;;;4.10;99.90;;;;;;4989046;28;20046;-64
2020/12/17 02:09:19;;;;;;;23.85;13.93;;;4.10;99.90;;;;;;4991860;28;20284;-64
2020/12/17 02:11:56;;;;;;;25.67;14.95;;;4.00;99.90;;;;;;4994261;28;20408;-65
2020/12/17 02:14:23;;;;;;;22.50;13.18;;;4.00;99.90;;;;;;4982044;28;20053;-65
2020/12/17 02:16:50;;;;;;;24.85;13.65;;;4.00;99.90;;;;;;4998937;28;20061;-65
2020/12/17 02:19:17;;;;;;;23.50;13.38;;;4.00;99.90;;;;;;4993876;28;20137;-65
2020/12/17 02:21:44;;;;;;;24.73;13.73;;;3.90;99.90;;;;;;4992732;28;20042;-64
2020/12/17 02:24:12;;;;;;;27.88;14.00;;;4.00;99.90;;;;;;4990745;28;20086;-64
2020/12/17 02:26:38;;;;;;;27.98;14.88;;;4.00;99.90;;;;;;4990295;28;20046;-64
2020/12/17 02:29:05;;;;;;;23.90;13.18;;;3.90;99.90;;;;;;4992221;28;20413;-64
2020/12/17 02:31:35;;;;;;;27.38;13.88;;;3.90;99.90;;;;;;4993400;28;20054;-64
2020/12/17 02:34:02;;;;;;;26.35;14.23;;;3.90;99.90;;;;;;4993240;28;20061;-63
2020/12/17 02:36:29;;;;;;;23.55;14.05;;;3.90;99.90;;;;;;4993216;28;20089;-64
2020/12/17 02:38:56;;;;;;;25.63;13.65;;;3.90;99.90;;;;;;4992051;28;20050;-64
2020/12/17 02:41:22;;;;;;;23.63;13.32;;;3.90;99.90;;;;;;4993081;28;20068;-64
2020/12/17 02:43:51;;;;;;;25.77;14.25;;;3.90;99.90;;;;;;4992718;28;20420;-64
2020/12/17 02:46:19;;;;;;;27.90;13.63;;;3.90;99.90;;;;;;4991622;28;20058;-64
2020/12/17 02:48:53;;;;;;;23.65;13.77;;;3.90;99.90;;;;;;4979351;28;20396;-65
2020/12/17 02:51:20;;;;;;;25.55;13.65;;;3.90;99.90;;;;;;4990983;28;20571;-65
2020/12/17 02:53:47;;;;;;;25.05;13.75;;;3.90;99.90;;;;;;4993061;28;20488;-64
2020/12/17 02:56:15;;;;;;;24.65;13.57;;;3.90;99.90;;;;;;4979695;28;20473;-64
2020/12/17 02:58:42;;;;;;;24.02;13.63;;;3.90;99.90;;;;;;4992756;28;20042;-64
2020/12/17 03:01:09;;;;;;;25.50;14.27;;;3.90;99.90;;;;;;4992541;28;20435;-64
2020/12/17 03:03:36;;;;;;;24.83;13.90;;;3.90;99.90;;;;;;4993318;28;20072;-63
2020/12/17 03:06:02;;;;;;;21.85;13.68;;;3.90;99.90;;;;;;4992506;28;20058;-65
2020/12/17 03:08:29;;;;;;;25.25;13.57;;;3.90;99.90;;;;;;4976035;28;20050;-63
2020/12/17 03:10:55;;;;;;;24.10;14.07;;;3.90;99.90;;;;;;4992567;28;20235;-64
2020/12/17 03:13:22;;;;;;;27.50;14.45;;;3.80;99.90;;;;;;4992776;28;20064;-65
2020/12/17 03:15:49;;;;;;;26.00;13.82;;;3.90;99.90;;;;;;4988112;28;20078;-64
2020/12/17 03:18:16;;;;;;;23.98;13.45;;;3.80;99.90;;;;;;4991816;28;20070;-64
2020/12/17 03:20:42;;;;;;;25.58;13.50;;;3.80;99.90;;;;;;4992854;28;20050;-63
2020/12/17 03:23:09;;;;;;;25.75;14.30;;;3.80;99.90;;;;;;4991199;28;20065;-63
2020/12/17 03:25:35;;;;;;;24.73;14.93;;;3.90;99.90;;;;;;4992436;28;20361;-65
2020/12/17 03:28:02;;;;;;;25.77;14.25;;;3.80;99.90;;;;;;4991164;28;20381;-63
2020/12/17 03:30:29;;;;;;;25.63;14.10;;;3.80;99.90;;;;;;4991242;28;20050;-63
2020/12/17 03:32:56;;;;;;;32.85;17.17;;;3.80;99.90;;;;;;4992302;28;20056;-64
2020/12/17 03:35:22;;;;;;;31.10;16.48;;;3.80;99.90;;;;;;4991087;28;20047;-64
2020/12/17 03:37:49;;;;;;;31.90;15.55;;;3.80;99.90;;;;;;4975816;28;20069;-63
2020/12/17 03:40:15;;;;;;;28.48;15.43;;;3.80;99.90;;;;;;4980549;28;20382;-64
2020/12/17 03:42:42;;;;;;;28.65;15.70;;;3.80;99.90;;;;;;4991062;28;20047;-63
2020/12/17 03:45:08;;;;;;;27.10;15.30;;;3.80;99.90;;;;;;4974237;28;20057;-63
2020/12/17 03:47:35;;;;;;;28.90;15.38;;;3.80;99.90;;;;;;4989413;28;20390;-63
2020/12/17 03:50:01;;;;;;;30.70;15.00;;;3.70;99.90;;;;;;4992366;28;20062;-63
2020/12/17 03:52:27;;;;;;;27.88;14.45;;;3.80;99.90;;;;;;4991653;28;20050;-62
2020/12/17 03:54:54;;;;;;;30.08;15.90;;;3.80;99.90;;;;;;4994749;28;20403;-64
2020/12/17 03:57:20;;;;;;;30.27;15.93;;;3.80;99.90;;;;;;4989213;28;20046;-64
2020/12/17 03:59:47;;;;;;;28.20;15.93;;;3.80;99.90;;;;;;4991190;28;20050;-65
2020/12/17 04:02:14;;;;;;;28.55;14.68;;;3.90;99.90;;;;;;4991198;28;20484;-64
2020/12/17 04:04:41;;;;;;;29.27;14.68;;;3.90;99.90;;;;;;4992209;28;20121;-63
2020/12/17 04:07:08;;;;;;;28.10;15.80;;;3.90;99.90;;;;;;4990624;28;20069;-64
2020/12/17 04:09:34;;;;;;;29.58;14.65;;;3.90;99.90;;;;;;4974432;28;20168;-65
2020/12/17 04:12:01;;;;;;;30.92;15.48;;;3.90;99.90;;;;;;4989832;28;20068;-63
2020/12/17 04:14:27;;;;;;;28.77;15.20;;;3.90;99.90;;;;;;4990024;28;20054;-64
2020/12/17 04:16:55;;;;;;;29.40;14.60;;;3.90;99.90;;;;;;4990498;28;20062;-64
2020/12/17 04:19:21;;;;;;;28.23;15.52;;;3.90;99.90;;;;;;4991155;28;20068;-63
2020/12/17 04:21:48;;;;;;;32.47;15.90;;;3.90;99.90;;;;;;4991022;28;20848;-64
2020/12/17 04:24:15;;;;;;;25.17;15.27;;;3.90;99.90;;;;;;4989683;28;20042;-63
2020/12/17 04:26:41;;;;;;;31.95;15.60;;;3.90;99.90;;;;;;4991858;28;20499;-63
2020/12/17 04:29:08;;;;;;;26.63;14.13;;;3.90;99.90;;;;;;4991929;28;20050;-63
2020/12/17 04:31:34;;;;;;;32.38;17.02;;;3.90;99.90;;;;;;4990235;28;20402;-63
2020/12/17 04:34:01;;;;;;;30.10;15.85;;;3.90;99.90;;;;;;4990003;28;20496;-63
2020/12/17 04:36:27;;;;;;;30.98;15.38;;;3.90;99.90;;;;;;4990325;28;20105;-63
2020/12/17 04:38:53;;;;;;;31.35;16.00;;;3.90;99.90;;;;;;4990349;28;20046;-64
2020/12/17 04:41:23;;;;;;;28.60;15.35;;;3.90;99.90;;;;;;4988482;28;20137;-63
2020/12/17 04:43:50;;;;;;;31.48;15.45;;;3.90;99.90;;;;;;4991258;28;20056;-64
2020/12/17 04:46:19;;;;;;;35.00;17.70;;;4.00;99.90;;;;;;4989700;28;20465;-65
2020/12/17 04:48:47;;;;;;;32.10;16.23;;;3.90;99.90;;;;;;4990109;28;20117;-64
2020/12/17 04:51:14;;;;;;;31.98;16.23;;;4.00;99.90;;;;;;4973441;28;20420;-63
2020/12/17 04:53:45;;;;;;;36.40;17.05;;;4.00;99.90;;;;;;4989626;28;20081;-63
2020/12/17 04:56:14;;;;;;;32.33;17.63;;;4.00;99.90;;;;;;4990366;28;20381;-63
2020/12/17 04:58:49;;;;;;;34.60;17.77;;;4.00;99.90;;;;;;4990499;28;20512;-64
2020/12/17 05:01:17;;;;;;;34.78;15.93;;;3.90;99.90;;;;;;4990986;28;20047;-63
2020/12/17 05:03:47;;;;;;;37.75;17.67;;;3.90;99.90;;;;;;4990933;28;20043;-64
2020/12/17 05:06:22;;;;;;;34.35;17.85;;;3.90;99.90;;;;;;4990677;28;20520;-64
2020/12/17 05:08:53;;;;;;;36.45;17.75;;;3.90;99.90;;;;;;4988788;28;20056;-65
2020/12/17 05:11:20;;;;;;;38.63;17.50;;;3.90;99.90;;;;;;4980953;28;20412;-63
2020/12/17 05:13:47;;;;;;;33.33;16.98;;;3.90;99.90;;;;;;4990422;28;20054;-63
2020/12/17 05:16:14;;;;;;;36.50;17.50;;;3.90;99.90;;;;;;4972491;28;20089;-63
2020/12/17 05:18:41;;;;;;;34.65;17.85;;;3.90;99.90;;;;;;4990679;28;20069;-63
2020/12/17 05:21:07;;;;;;;37.33;18.02;;;3.90;99.90;;;;;;4972023;28;20050;-67
2020/12/17 05:23:35;;;;;;;39.42;19.15;;;3.90;99.90;;;;;;4983206;28;20050;-64
2020/12/17 05:26:02;;;;;;;34.95;16.70;;;3.80;99.90;;;;;;4988831;28;20072;-63
2020/12/17 05:28:28;;;;;;;38.08;19.10;;;3.80;99.90;;;;;;4990861;28;20137;-63
2020/12/17 05:30:55;;;;;;;38.33;18.13;;;3.80;99.90;;;;;;4989761;28;20432;-64
2020/12/17 05:33:23;;;;;;;43.80;19.98;;;3.80;99.90;;;;;;4972816;28;20122;-63
2020/12/17 05:35:50;;;;;;;39.10;19.40;;;3.80;99.90;;;;;;4989261;28;20491;-63
2020/12/17 05:38:23;;;;;;;40.88;19.45;;;3.80;99.90;;;;;;4989158;28;20050;-64
2020/12/17 05:40:50;;;;;;;41.17;19.90;;;3.90;99.90;;;;;;4989181;28;20057;-64
2020/12/17 05:43:22;;;;;;;35.50;17.45;;;3.90;99.90;;;;;;4990715;28;20043;-65
2020/12/17 05:45:49;;;;;;;41.70;18.42;;;3.90;99.90;;;;;;4992802;28;20050;-65
2020/12/17 05:48:20;;;;;;;43.80;18.58;;;3.90;99.90;;;;;;4992803;28;20524;-63
2020/12/17 05:50:51;;;;;;;43.35;20.58;;;3.90;99.90;;;;;;4992988;28;20153;-65
2020/12/17 05:53:18;;;;;;;45.58;19.65;;;3.90;99.90;;;;;;4993773;28;20053;-63
2020/12/17 05:55:44;;;;;;;44.53;19.67;;;3.80;99.90;;;;;;4993400;28;20046;-64
2020/12/17 05:58:12;;;;;;;40.95;20.58;;;3.80;99.90;;;;;;4994572;28;20057;-63
2020/12/17 06:00:39;;;;;;;43.97;20.63;;;3.90;99.90;;;;;;4993246;28;20404;-63
2020/12/17 06:03:12;;;;;;;43.50;19.38;;;3.80;99.90;;;;;;4992914;28;20413;-63
2020/12/17 06:05:43;;;;;;;41.63;19.17;;;3.80;99.90;;;;;;5004138;28;20133;-63
2020/12/17 06:08:31;;;;;;;45.43;21.27;;;3.90;99.90;;;;;;4991479;28;20413;-64
2020/12/17 06:11:03;;;;;;;48.00;19.10;;;3.90;99.90;;;;;;4984194;28;20443;-65
2020/12/17 06:13:33;;;;;;;43.95;20.15;;;3.90;99.90;;;;;;4993913;28;20054;-65
2020/12/17 06:16:08;;;;;;;41.67;18.95;;;3.80;99.90;;;;;;4994321;28;20061;-64
2020/12/17 06:18:47;;;;;;;45.53;19.30;;;3.80;99.90;;;;;;4996307;28;20084;-65
2020/12/17 06:21:15;;;;;;;44.88;19.42;;;3.90;99.90;;;;;;4984126;28;20051;-64
2020/12/17 06:23:41;;;;;;;41.67;19.70;;;3.90;99.90;;;;;;4993339;28;20065;-64
2020/12/17 06:26:11;;;;;;;48.40;20.17;;;3.90;99.90;;;;;;4993209;28;20519;-64
2020/12/17 06:28:44;;;;;;;40.42;18.70;;;3.90;99.90;;;;;;4995354;28;20054;-65
2020/12/17 06:31:28;;;;;;;42.80;19.92;;;3.90;99.90;;;;;;4993092;28;20060;-64
2020/12/17 06:34:03;;;;;;;43.42;20.95;;;3.90;99.90;;;;;;4995826;28;20051;-65
2020/12/17 06:36:50;;;;;;;45.95;20.88;;;3.90;99.90;;;;;;4996228;28;20058;-64
2020/12/17 06:39:18;;;;;;;42.30;20.65;;;3.90;99.90;;;;;;4997605;28;20049;-63
2020/12/17 06:41:45;;;;;;;44.75;20.52;;;3.90;99.90;;;;;;4993648;28;20055;-65
2020/12/17 06:44:47;;;;;;;48.33;21.05;;;3.90;99.90;;;;;;4999288;28;20042;-64
2020/12/17 06:47:29;;;;;;;44.23;21.50;;;3.90;99.90;;;;;;4906563;29;20418;-64
2020/12/17 06:50:22;;;;;;;46.55;20.77;;;3.90;99.90;;;;;;4909832;29;20387;-64
2020/12/17 06:53:09;;;;;;;49.47;22.70;;;3.90;99.90;;;;;;4913548;29;20048;-64
2020/12/17 06:55:46;;;;;;;48.55;24.35;;;3.90;99.90;;;;;;4891016;29;20052;-67
2020/12/17 06:58:17;;;;;;;57.58;25.73;;;3.90;99.90;;;;;;4913940;29;20051;-65
2020/12/17 07:00:44;;;;;;;49.03;21.73;;;3.90;99.90;;;;;;4913398;29;20050;-65
2020/12/17 07:03:44;;;;;;;47.83;21.48;;;3.90;99.90;;;;;;4898639;29;20509;-64
2020/12/17 07:06:12;;;;;;;47.78;22.70;;;3.90;99.90;;;;;;4912339;29;20112;-64
2020/12/17 07:08:39;;;;;;;48.85;21.75;;;3.90;99.90;;;;;;4913757;29;20051;-66
2020/12/17 07:11:07;;;;;;;44.65;20.40;;;3.90;99.90;;;;;;4913628;29;20052;-66
2020/12/17 07:13:40;;;;;;;51.92;23.08;;;3.90;99.90;;;;;;4913798;29;20524;-66
2020/12/17 07:16:21;;;;;;;54.25;24.15;;;3.90;99.90;;;;;;4913012;29;20066;-65
2020/12/17 07:18:48;;;;;;;55.13;22.80;;;3.90;99.90;;;;;;4913240;29;20044;-65
2020/12/17 07:21:24;;;;;;;54.50;23.38;;;3.90;99.90;;;;;;4953390;28;20085;-65
2020/12/17 07:23:51;;;;;;;63.40;30.25;;;3.90;99.90;;;;;;4974232;28;20070;-65
2020/12/17 07:26:18;;;;;;;54.90;24.52;;;4.00;99.90;;;;;;4992704;28;20050;-64
2020/12/17 07:28:54;;;;;;;45.78;21.40;;;4.00;99.90;;;;;;4992828;28;20038;-65
2020/12/17 07:31:25;;;;;;;42.80;20.65;;;3.90;99.90;;;;;;4990366;28;20050;-65
2020/12/17 07:33:52;;;;;;;53.03;21.77;;;3.90;99.90;;;;;;4975245;28;20499;-66
2020/12/17 07:36:46;;;;;;;52.05;23.20;;;3.90;99.90;;;;;;4992238;28;20592;-65
2020/12/17 07:39:14;;;;;;;50.83;22.38;;;3.90;99.90;;;;;;4983619;28;20050;-66
2020/12/17 07:41:40;;;;;;;49.03;22.77;;;3.90;99.90;;;;;;4992351;28;20404;-65
2020/12/17 07:44:09;;;;;;;45.13;20.90;;;3.90;99.90;;;;;;4992448;28;20042;-64
2020/12/17 07:46:42;;;;;;;48.92;21.05;;;3.90;99.90;;;;;;4991072;28;20145;-65
2020/12/17 07:49:24;;;;;;;48.95;21.63;;;3.90;99.90;;;;;;4991944;28;20137;-65
2020/12/17 07:51:50;;;;;;;59.83;26.73;;;4.00;99.90;;;;;;4991706;28;20056;-65
2020/12/17 07:54:22;;;;;;;53.53;26.40;;;4.00;99.90;;;;;;4991959;28;20046;-65
2020/12/17 07:56:49;;;;;;;47.50;20.87;;;4.10;99.90;;;;;;4974472;28;20050;-66
2020/12/17 07:59:16;;;;;;;45.13;20.55;;;4.10;99.90;;;;;;4991980;28;20489;-66
2020/12/17 08:01:42;;;;;;;43.17;19.52;;;4.00;99.90;;;;;;4991257;28;20049;-66
2020/12/17 08:04:10;;;;;;;45.25;20.30;;;4.00;99.90;;;;;;4973973;28;20046;-66
2020/12/17 08:06:37;;;;;;;39.70;19.83;;;4.00;99.90;;;;;;4990854;28;20050;-66
2020/12/17 08:09:04;;;;;;;40.20;19.30;;;4.00;99.90;;;;;;4990946;28;20054;-67
2020/12/17 08:11:39;;;;;;;42.70;19.48;;;4.00;99.90;;;;;;4990957;28;20046;-65
2020/12/17 08:14:07;;;;;;;49.53;22.92;;;4.00;99.90;;;;;;4991300;28;20510;-67
2020/12/17 08:16:35;;;;;;;46.20;18.67;;;4.00;99.90;;;;;;4973445;28;20126;-67
2020/12/17 08:19:03;;;;;;;37.28;18.38;;;4.00;99.90;;;;;;4991022;28;20077;-65
2020/12/17 08:21:29;;;;;;;37.03;18.38;;;3.90;99.90;;;;;;4990581;28;20046;-66
2020/12/17 08:23:56;;;;;;;38.00;17.70;;;4.00;99.90;;;;;;4991105;28;20408;-67
2020/12/17 08:26:28;;;;;;;36.83;17.30;;;4.00;99.90;;;;;;4990604;28;20042;-66
2020/12/17 08:28:55;;;;;;;37.97;17.33;;;4.00;99.90;;;;;;4991057;28;20073;-66
2020/12/17 08:31:27;;;;;;;28.83;15.32;;;4.10;99.90;;;;;;4989846;28;20050;-67
2020/12/17 08:33:56;;;;;;;25.98;13.60;;;4.10;99.90;;;;;;4978450;28;20508;-65
2020/12/17 08:36:37;;;;;;;30.08;15.45;;;4.10;99.90;;;;;;4990129;28;20054;-66
2020/12/17 08:39:16;;;;;;;26.70;13.55;;;4.00;99.90;;;;;;4989523;28;20085;-66
2020/12/17 08:41:56;;;;;;;29.63;15.43;;;4.10;99.90;;;;;;4990180;28;20045;-65
2020/12/17 08:44:26;;;;;;;34.63;18.35;;;4.10;99.90;;;;;;4991539;28;20046;-66
2020/12/17 08:47:04;;;;;;;36.63;18.55;;;4.10;99.90;;;;;;4990367;28;20054;-65
2020/12/17 08:49:31;;;;;;;36.95;18.67;;;4.20;99.90;;;;;;4991536;28;20506;-65
2020/12/17 08:51:59;;;;;;;28.00;15.30;;;4.20;99.90;;;;;;4991138;28;20090;-66
2020/12/17 08:54:36;;;;;;;29.05;15.82;;;4.20;99.90;;;;;;4974112;28;20050;-65
2020/12/17 08:57:11;;;;;;;31.45;15.98;;;4.30;99.90;;;;;;4990599;28;20073;-66
2020/12/17 08:59:38;;;;;;;32.05;15.90;;;4.40;99.90;;;;;;4991215;28;20416;-65
2020/12/17 09:02:05;;;;;;;25.77;14.43;;;4.30;99.90;;;;;;4989419;28;20051;-65
2020/12/17 09:04:33;;;;;;;28.15;14.82;;;4.40;99.90;;;;;;4990724;28;20416;-65
2020/12/17 09:07:01;;;;;;;26.52;15.02;;;4.40;99.90;;;;;;4989583;28;20451;-65
2020/12/17 09:09:29;;;;;;;25.73;15.13;;;4.30;99.90;;;;;;4989575;28;20050;-66
2020/12/17 09:12:05;;;;;;;32.78;16.88;;;4.30;99.90;;;;;;4990082;28;20413;-66
2020/12/17 09:14:34;;;;;;;25.00;14.52;;;4.30;99.90;;;;;;4990637;28;20072;-65
2020/12/17 09:17:26;;;;;;;25.08;13.90;;;4.40;99.90;;;;;;4991382;28;20050;-65
2020/12/17 09:19:53;;;;;;;;;;;4.40;99.90;;;;;;4991945;28;20058;-66
2020/12/17 09:22:20;;;;;;;28.42;14.20;;;4.40;99.90;;;;;;4990827;28;19925;-65
2020/12/17 09:24:49;;;;;;;28.48;14.35;;;4.40;99.90;;;;;;4985807;28;20057;-66
2020/12/17 09:27:33;;;;;;;29.45;13.02;;;4.40;99.90;;;;;;4945060;28;20047;-66
2020/12/17 09:30:20;;;;;;;23.80;14.43;;;4.40;99.90;;;;;;4984001;28;20068;-66
2020/12/17 09:32:53;;;;;;;25.92;13.60;;;4.40;99.90;;;;;;4994210;28;20089;-66
2020/12/17 09:35:21;;;;;;;24.08;13.68;;;4.40;99.90;;;;;;4994327;28;20042;-66
2020/12/17 09:38:05;;;;;;;27.70;13.95;;;4.40;99.90;;;;;;4995406;28;20038;-65
2020/12/17 09:40:32;;;;;;;23.65;13.43;;;4.50;99.90;;;;;;4969491;28;20057;-66
2020/12/17 09:43:07;;;;;;;27.27;14.13;;;4.50;99.90;;;;;;4993515;28;20061;-65
2020/12/17 09:45:56;;;;;;;23.42;13.32;;;4.50;99.90;;;;;;4988945;28;20050;-65
2020/12/17 09:48:26;;;;;;;23.77;12.93;;;4.60;99.90;;;;;;4993868;28;20476;-65
2020/12/17 09:51:04;;;;;;;24.77;14.07;;;4.60;99.90;;;;;;4994365;28;20054;-65
2020/12/17 09:53:32;;;;;;;24.20;13.38;;;4.70;99.90;;;;;;4977168;28;20046;-66
2020/12/17 09:55:59;;;;;;;23.98;12.93;;;4.70;99.90;;;;;;4992200;28;20058;-65
2020/12/17 09:58:26;;;;;;;24.73;12.73;;;4.70;99.90;;;;;;4992971;28;20050;-66
2020/12/17 10:00:53;;;;;;;23.05;13.23;;;4.80;99.90;;;;;;4994012;28;20489;-65
2020/12/17 10:03:19;;;;;;;26.58;13.57;;;4.80;99.90;;;;;;4993959;28;20081;-65
2020/12/17 10:05:46;;;;;;;21.88;12.35;;;4.90;99.90;;;;;;4979403;28;20240;-66
2020/12/17 10:08:12;;;;;;;21.75;12.45;;;4.80;99.90;;;;;;4993175;28;20065;-66
2020/12/17 10:10:39;;;;;;;23.17;13.60;;;4.80;99.90;;;;;;4993437;28;20500;-65
2020/12/17 10:13:06;;;;;;;22.15;13.23;;;4.80;99.90;;;;;;4994030;28;20058;-66
2020/12/17 10:15:33;;;;;;;21.80;12.27;;;4.90;99.90;;;;;;4994039;28;20042;-65
2020/12/17 10:18:00;;;;;;;22.40;12.32;;;4.90;99.90;;;;;;4992734;28;20056;-65
2020/12/17 10:20:26;;;;;;;24.10;13.25;;;5.10;99.90;;;;;;4992609;28;20052;-65
2020/12/17 10:22:54;;;;;;;18.25;11.52;;;5.20;99.90;;;;;;4992368;28;20055;-67
2020/12/17 10:25:24;;;;;;;19.38;11.60;;;5.40;99.90;;;;;;4993874;28;20054;-65
2020/12/17 10:27:52;;;;;;;21.50;12.50;;;5.50;99.90;;;;;;4992094;28;20064;-65
2020/12/17 10:30:19;;;;;;;21.90;12.45;;;5.50;99.90;;;;;;4988580;28;20058;-65
2020/12/17 10:32:45;;;;;;;20.65;12.68;;;5.40;99.90;;;;;;4991346;28;20130;-66
2020/12/17 10:35:12;;;;;;;21.80;12.02;;;5.50;99.90;;;;;;4993015;28;20057;-66
2020/12/17 10:37:40;;;;;;;21.67;12.48;;;5.70;99.90;;;;;;4991889;28;20054;-66
2020/12/17 10:40:07;;;;;;;20.98;11.63;;;5.70;99.90;;;;;;4992744;28;20138;-66
2020/12/17 10:42:36;;;;;;;20.77;13.38;;;5.80;99.90;;;;;;4992172;28;20053;-66
2020/12/17 10:45:04;;;;;;;20.88;12.45;;;5.90;99.90;;;;;;4992586;28;20377;-66
2020/12/17 10:47:31;;;;;;;19.55;11.32;;;5.80;99.90;;;;;;4991422;28;20053;-65
2020/12/17 10:49:57;;;;;;;21.13;12.40;;;5.80;99.90;;;;;;4991806;28;20786;-65
2020/12/17 10:52:24;;;;;;;20.25;12.32;;;5.60;99.90;;;;;;4991496;28;20056;-66
2020/12/17 10:54:50;;;;;;;24.75;12.20;;;5.60;99.90;;;;;;4992460;28;20404;-66
2020/12/17 10:57:20;;;;;;;19.42;12.48;;;5.60;99.90;;;;;;4992896;28;20051;-65
2020/12/17 10:59:47;;;;;;;23.15;13.32;;;5.60;99.90;;;;;;4990847;28;20046;-66
2020/12/17 11:02:15;;;;;;;20.48;12.75;;;5.60;99.90;;;;;;4992589;28;20129;-66
2020/12/17 11:04:42;;;;;;;23.60;13.52;;;5.70;99.90;;;;;;4991621;28;20119;-67
2020/12/17 11:07:09;;;;;;;22.50;12.52;;;5.80;99.90;;;;;;4990697;28;20081;-65
2020/12/17 11:09:36;;;;;;;20.13;12.20;;;5.90;99.90;;;;;;4991663;28;20046;-66
2020/12/17 11:12:02;;;;;;;19.30;11.93;;;5.90;99.90;;;;;;4990557;28;20121;-66
2020/12/17 11:14:29;;;;;;;20.95;12.23;;;6.10;99.90;;;;;;4992822;28;20050;-66
2020/12/17 11:16:55;;;;;;;19.30;11.75;;;6.20;99.90;;;;;;4991512;28;20047;-65
2020/12/17 11:19:22;;;;;;;19.77;12.65;;;6.30;99.90;;;;;;4979242;28;20072;-66
2020/12/17 11:21:48;;;;;;;21.35;13.52;;;6.30;99.90;;;;;;4991493;28;20309;-66
2020/12/17 11:24:17;;;;;;;21.52;12.45;;;6.50;99.90;;;;;;4991894;28;20050;-66
2020/12/17 11:26:45;;;;;;;20.55;12.50;;;6.70;99.90;;;;;;4991906;28;20452;-66
2020/12/17 11:29:12;;;;;;;17.55;11.27;;;6.80;99.90;;;;;;4991730;28;20070;-66
2020/12/17 11:31:43;;;;;;;17.92;11.70;;;6.80;99.90;;;;;;4991284;28;20137;-66
2020/12/17 11:34:10;;;;;;;18.92;11.52;;;6.90;99.90;;;;;;4973698;28;20085;-65
2020/12/17 11:36:37;;;;;;;22.92;11.65;;;7.00;99.90;;;;;;4973111;28;20050;-65
2020/12/17 11:39:04;;;;;;;19.77;11.45;;;6.90;99.90;;;;;;4991107;28;20050;-66
2020/12/17 11:41:30;;;;;;;18.00;11.25;;;6.90;99.90;;;;;;4989994;28;20080;-66
2020/12/17 11:43:58;;;;;;;18.42;11.98;;;6.80;99.90;;;;;;4991954;28;20049;-66
2020/12/17 11:46:25;;;;;;;17.50;11.07;;;6.70;99.90;;;;;;4990834;28;20061;-66
2020/12/17 11:48:51;;;;;;;17.63;10.35;;;6.80;99.90;;;;;;4991465;28;20434;-66
2020/12/17 11:51:17;;;;;;;17.27;10.57;;;6.90;99.90;;;;;;4974105;28;20058;-66
2020/12/17 11:53:44;;;;;;;16.23;10.15;;;7.00;99.90;;;;;;4990653;28;20061;-66
2020/12/17 11:56:15;;;;;;;21.10;11.38;;;7.00;99.90;;;;;;4989629;28;20452;-66
2020/12/17 11:58:43;;;;;;;14.48;9.88;;;7.10;99.90;;;;;;4991018;28;20048;-66
2020/12/17 12:01:10;;;;;;;18.80;11.10;;;7.00;99.90;;;;;;4989836;28;20047;-65
2020/12/17 12:03:37;;;;;;;18.77;11.02;;;7.10;99.90;;;;;;4990642;28;20054;-66
2020/12/17 12:06:04;;;;;;;28.63;10.82;;;7.30;99.90;;;;;;4989635;28;20445;-66
2020/12/17 12:08:30;;;;;;;20.90;11.43;;;7.30;99.90;;;;;;4979815;28;20465;-65
2020/12/17 12:10:58;;;;;;;15.82;9.48;;;7.30;99.90;;;;;;4978013;28;20056;-66
2020/12/17 12:13:24;;;;;;;21.70;9.98;;;7.30;99.90;;;;;;4974186;28;20084;-65
2020/12/17 12:15:51;;;;;;;14.98;10.02;;;7.40;99.90;;;;;;4989205;28;20050;-65
2020/12/17 12:18:18;;;;;;;16.42;9.73;;;7.60;99.90;;;;;;4990428;28;20046;-66
2020/12/17 12:20:45;;;;;;;13.98;9.05;;;8.10;99.90;;;;;;4990776;28;20047;-66
2020/12/17 12:23:16;;;;;;;13.02;7.97;;;8.80;99.90;;;;;;4972560;28;20046;-66
2020/12/17 12:25:43;;;;;;;11.48;8.60;;;9.90;99.90;;;;;;4991128;28;20046;-66
2020/12/17 12:28:10;;;;;;;13.80;9.30;;;10.40;99.90;;;;;;4990202;28;20050;-66
2020/12/17 12:30:37;;;;;;;16.10;9.70;;;10.20;99.90;;;;;;4991130;28;20054;-66
2020/12/17 12:33:03;;;;;;;13.63;9.23;;;9.90;99.90;;;;;;4989560;28;20068;-66
2020/12/17 12:35:30;;;;;;;17.63;10.20;;;9.90;99.90;;;;;;4991215;28;20058;-65
2020/12/17 12:37:56;;;;;;;14.90;10.13;;;10.30;99.90;;;;;;4990733;28;20455;-65
2020/12/17 12:40:23;;;;;;;15.60;9.90;;;10.30;99.90;;;;;;4973608;28;20046;-66
2020/12/17 12:42:49;;;;;;;15.15;10.15;;;9.70;99.90;;;;;;4990553;28;20050;-65
2020/12/17 12:45:16;;;;;;;21.48;10.32;;;9.30;99.90;;;;;;4989632;28;20050;-65
2020/12/17 12:47:42;;;;;;;14.98;10.40;;;9.10;99.90;;;;;;4988498;28;20046;-66